Saint-Simeon, Canada
Current Conditions -  °F | °C
As of 8:00 PM on Sunday 23 Nov 2014 (Local Time) from CYBG Reporting Station
Overcast Overcast  
Wind Chill: 23°   Ceiling: 4000
Heat Index: 30°   Visibility: 25mi
Dew Point: 28°   Wind: 8mph
Humidity: 93%   Direction: 90°E
Pressure: 30.01"   Gusts: NA
Location:  47.85°N, 69.88°W
Report Text: CYBG 240100Z 09007KT 25SM OVC040 M01/M02 A3001 RMK SC8 SLP173
Loading
Personal Weather Stations






























Interactive Weather Map New forecast layout! Learn more

10-Day Weather Forecast

Advertisements
Track Severe Weather on mobile